Terminal Aerodrome Forecast
Issued by NWS Blacksburg, VA

Current Version | Previous Version | Text Only | Print | Product List | Glossary Off
Versions: 1 2 3 4 5 6 7 8 9 10 11 12 13 14

000
FTUS41 KRNK 291120
TAFBLF
TAF
KBLF 291120Z 2912/3012 06003KT P6SM SCT250
     FM292000 03006KT P6SM BKN040
     FM300200 09003KT P6SM SCT040=

USA.gov is the U.S. government's official web portal to all federal, state and local government web resources and services.